createdAt,value
2018-07-20T00:01:21.101Z,22.57
2018-07-20T00:03:51.317Z,22.77
2018-07-20T00:06:22.657Z,21.47
2018-07-20T00:08:52.885Z,22.20
2018-07-20T00:11:22.991Z,20.80
2018-07-20T00:13:53.400Z,21.57
2018-07-20T00:16:23.540Z,20.23
2018-07-20T00:18:54.794Z,20.10
2018-07-20T00:21:24.837Z,20.77
2018-07-20T00:23:54.966Z,20.00
2018-07-20T00:26:25.138Z,20.83
2018-07-20T00:28:55.434Z,21.83
2018-07-20T00:31:25.541Z,19.87
2018-07-20T00:33:55.816Z,20.13
2018-07-20T00:36:26.021Z,19.60
2018-07-20T00:38:58.212Z,19.17
2018-07-20T00:41:29.370Z,18.83
2018-07-20T00:43:59.495Z,18.87
2018-07-20T00:46:29.655Z,18.50
2018-07-20T00:49:00.723Z,17.10
2018-07-20T00:51:30.732Z,18.43
2018-07-20T00:54:00.787Z,16.77
2018-07-20T00:56:31.438Z,16.43
2018-07-20T00:59:01.492Z,16.10
2018-07-20T01:01:31.730Z,16.23
2018-07-20T01:04:01.950Z,15.80
2018-07-20T01:06:32.341Z,15.83
2018-07-20T01:09:02.630Z,15.13
2018-07-20T01:11:32.630Z,15.43
2018-07-20T01:14:02.662Z,15.00
2018-07-20T01:16:32.734Z,15.33
2018-07-20T01:19:02.895Z,14.40
2018-07-20T01:21:32.929Z,14.47
2018-07-20T01:24:03.268Z,14.63
2018-07-20T01:26:33.416Z,15.23
2018-07-20T01:29:03.530Z,14.67
2018-07-20T01:31:33.711Z,15.33
2018-07-20T01:34:03.740Z,15.37
2018-07-20T01:36:33.781Z,15.37
2018-07-20T01:39:05.421Z,14.97
2018-07-20T01:41:36.794Z,13.83
2018-07-20T01:44:07.147Z,14.87
2018-07-20T01:46:37.315Z,15.30
2018-07-20T01:49:08.096Z,16.17
2018-07-20T01:51:38.267Z,15.43
2018-07-20T01:54:08.639Z,15.90
2018-07-20T01:56:38.657Z,16.53
2018-07-20T01:59:08.777Z,16.10
2018-07-20T02:01:39.233Z,15.20
2018-07-20T02:04:09.439Z,15.50
2018-07-20T02:06:39.534Z,15.83
2018-07-20T02:09:11.561Z,15.30
2018-07-20T02:11:41.853Z,15.30
2018-07-20T02:14:11.973Z,15.80
2018-07-20T02:16:42.316Z,15.23
2018-07-20T02:19:12.447Z,14.07
2018-07-20T02:21:42.538Z,14.20
2018-07-20T02:24:12.670Z,14.37
2018-07-20T02:26:42.786Z,13.37
2018-07-20T02:29:12.970Z,14.43
2018-07-20T02:31:43.230Z,13.87
2018-07-20T02:34:13.292Z,14.93
2018-07-20T02:36:43.373Z,14.80
2018-07-20T02:39:14.543Z,14.53
2018-07-20T02:41:44.826Z,13.60
2018-07-20T02:44:15.056Z,14.77
2018-07-20T02:46:45.208Z,14.47
2018-07-20T02:49:15.185Z,13.60
2018-07-20T02:51:45.412Z,13.20
2018-07-20T02:54:15.452Z,13.73
2018-07-20T02:56:45.588Z,13.43
2018-07-20T02:59:15.785Z,12.43
2018-07-20T03:01:45.853Z,12.97
2018-07-20T03:04:15.992Z,12.70
2018-07-20T03:06:46.374Z,11.63
2018-07-20T03:09:16.541Z,12.37
2018-07-20T03:11:46.704Z,11.87
2018-07-20T03:14:16.893Z,11.63
2018-07-20T03:16:47.156Z,11.90
2018-07-20T03:19:19.139Z,12.50
2018-07-20T03:21:49.373Z,13.37
2018-07-20T03:24:19.637Z,12.80
2018-07-20T03:26:49.801Z,12.57
2018-07-20T03:29:20.001Z,12.00
2018-07-20T03:31:50.221Z,12.17
2018-07-20T03:34:20.366Z,12.53
2018-07-20T03:36:50.669Z,11.63
2018-07-20T03:39:20.960Z,11.93
2018-07-20T03:41:51.127Z,12.30
2018-07-20T03:44:21.466Z,12.87
2018-07-20T03:46:51.529Z,12.80
2018-07-20T03:49:22.726Z,11.73
2018-07-20T03:51:53.235Z,11.63
2018-07-20T03:54:23.457Z,11.87
2018-07-20T03:56:53.552Z,11.27
2018-07-20T03:59:23.735Z,11.30
2018-07-20T04:01:54.164Z,11.60
2018-07-20T04:04:24.331Z,10.90
2018-07-20T04:06:54.560Z,10.40
2018-07-20T04:09:24.600Z,10.30
2018-07-20T04:11:54.593Z,9.67
2018-07-20T04:14:24.839Z,9.93
2018-07-20T04:16:54.926Z,9.43
2018-07-20T04:19:24.956Z,9.70
2018-07-20T04:21:55.070Z,9.40
2018-07-20T04:24:25.378Z,9.43
2018-07-20T04:26:55.531Z,8.97
2018-07-20T04:29:25.960Z,8.83
2018-07-20T04:31:56.180Z,8.27
2018-07-20T04:34:26.356Z,7.83
2018-07-20T04:36:57.354Z,8.50
2018-07-20T04:39:27.583Z,8.63
2018-07-20T04:41:57.693Z,8.33
2018-07-20T04:44:27.999Z,8.07
2018-07-20T04:46:58.438Z,8.10
2018-07-20T04:49:28.411Z,8.03
2018-07-20T04:51:58.688Z,7.53
2018-07-20T04:54:28.827Z,8.07
2018-07-20T04:56:59.018Z,8.13
2018-07-20T04:59:29.278Z,7.43
2018-07-20T05:01:59.544Z,8.33
2018-07-20T05:04:29.543Z,7.50
2018-07-20T05:06:59.713Z,8.17
2018-07-20T05:09:29.855Z,8.83
2018-07-20T05:12:00.048Z,7.77
2018-07-20T05:14:30.078Z,8.17
2018-07-20T05:17:00.295Z,8.50
2018-07-20T05:19:30.607Z,8.80
2018-07-20T05:22:00.780Z,8.37
2018-07-20T05:24:31.050Z,8.57
2018-07-20T05:27:01.361Z,8.47
2018-07-20T05:29:31.522Z,8.97
2018-07-20T05:32:01.673Z,8.77
2018-07-20T05:34:32.062Z,8.30
2018-07-20T05:37:02.242Z,8.37
2018-07-20T05:39:32.398Z,8.67
2018-07-20T05:42:02.428Z,7.90
2018-07-20T05:44:32.664Z,8.30
2018-07-20T05:47:02.871Z,7.90
2018-07-20T05:49:32.967Z,7.93
2018-07-20T05:52:03.313Z,7.90
2018-07-20T05:54:34.558Z,6.93
2018-07-20T05:57:04.679Z,7.10
2018-07-20T06:06:34.246Z,7.33
2018-07-20T06:09:04.396Z,7.20
2018-07-20T06:11:34.661Z,6.80
2018-07-20T06:14:04.454Z,6.93
2018-07-20T06:16:35.798Z,7.43
2018-07-20T06:19:06.007Z,7.47
2018-07-20T06:21:36.312Z,7.47
2018-07-20T06:24:06.415Z,6.80
2018-07-20T06:26:36.600Z,6.00
2018-07-20T06:29:06.781Z,6.10
2018-07-20T06:31:36.903Z,6.13
2018-07-20T06:34:08.123Z,6.30
2018-07-20T06:36:38.536Z,6.10
2018-07-20T06:39:12.539Z,6.67
2018-07-20T06:41:42.737Z,6.17
2018-07-20T06:44:12.820Z,5.93
2018-07-20T06:46:42.977Z,5.70
2018-07-20T06:49:13.504Z,5.43
2018-07-20T06:51:43.719Z,5.40
2018-07-20T06:54:13.841Z,5.23
2018-07-20T06:56:44.191Z,5.10
2018-07-20T06:59:14.496Z,5.37
2018-07-20T07:01:44.472Z,5.10
2018-07-20T07:04:14.928Z,5.33
2018-07-20T07:06:45.229Z,5.47
2018-07-20T07:09:15.423Z,5.53
2018-07-20T07:11:45.351Z,4.90
2018-07-20T07:14:15.559Z,5.30
2018-07-20T07:16:45.737Z,5.10
2018-07-20T07:19:15.849Z,5.43
2018-07-20T07:21:46.079Z,4.97
2018-07-20T17:52:00.150Z,7.20
2018-07-20T17:54:31.352Z,7.10
2018-07-20T17:57:01.707Z,7.67
2018-07-20T17:59:31.947Z,7.93
2018-07-20T18:02:02.170Z,7.80
2018-07-20T18:04:33.329Z,7.90
2018-07-20T18:07:03.341Z,7.60
2018-07-20T18:09:33.604Z,7.87
2018-07-20T18:12:03.622Z,8.00
2018-07-20T18:14:34.024Z,7.67
2018-07-20T18:17:04.254Z,7.90
2018-07-20T18:19:34.486Z,6.67
2018-07-20T18:22:04.824Z,7.63
2018-07-20T18:24:35.888Z,8.60
2018-07-20T18:27:06.165Z,7.30
2018-07-20T18:29:36.257Z,7.83
2018-07-20T18:32:06.652Z,7.53
2018-07-20T18:34:37.183Z,8.30
2018-07-20T18:37:07.382Z,7.87
2018-07-20T18:39:37.420Z,8.50
2018-07-20T18:42:07.607Z,7.67
2018-07-20T18:44:37.955Z,7.63
2018-07-20T18:47:08.381Z,7.80
2018-07-20T18:49:38.584Z,7.17
2018-07-20T18:52:10.681Z,6.93
2018-07-20T18:54:40.936Z,7.07
2018-07-20T18:57:11.120Z,6.80
2018-07-20T18:59:41.129Z,6.60
2018-07-20T19:02:12.116Z,6.80
2018-07-20T19:04:42.240Z,6.80
2018-07-20T19:07:12.380Z,6.93
2018-07-20T19:09:42.342Z,7.50
2018-07-20T19:12:12.600Z,7.70
2018-07-20T19:14:42.809Z,8.30
2018-07-20T19:17:13.025Z,7.37
2018-07-20T19:19:43.363Z,7.77
2018-07-20T19:22:13.581Z,7.57
2018-07-20T19:24:44.689Z,8.17
2018-07-20T19:27:14.917Z,7.97
2018-07-20T19:29:45.163Z,8.23
2018-07-20T19:32:15.489Z,9.13
2018-07-20T19:34:45.665Z,9.67
2018-07-20T19:37:15.672Z,10.10
2018-07-20T19:39:45.771Z,10.70
2018-07-20T19:42:16.837Z,9.35
2018-07-20T19:44:47.208Z,9.10
2018-07-20T19:47:17.090Z,16.40
2018-07-20T19:49:47.279Z,14.73
2018-07-20T19:52:17.339Z,12.57
2018-07-20T19:54:47.560Z,11.83
2018-07-20T19:57:17.701Z,11.40
2018-07-20T19:59:49.009Z,15.00
2018-07-20T20:02:19.341Z,14.10
2018-07-20T20:04:49.431Z,14.07
2018-07-20T20:07:20.924Z,15.03
2018-07-20T20:09:51.053Z,15.27
2018-07-20T20:12:21.095Z,14.47
2018-07-20T20:14:51.236Z,14.90
2018-07-20T20:17:21.374Z,15.00
2018-07-20T20:19:51.695Z,12.83
2018-07-20T20:22:22.111Z,12.30
2018-07-20T20:24:52.102Z,13.20
2018-07-20T20:27:22.351Z,14.67
2018-07-20T20:29:52.271Z,14.60
2018-07-20T20:32:22.341Z,15.77
2018-07-20T20:34:52.610Z,16.70
2018-07-20T20:37:22.511Z,18.27
2018-07-20T20:39:52.889Z,17.97
2018-07-20T20:42:23.274Z,18.93
2018-07-20T20:44:53.345Z,18.87
2018-07-20T20:47:23.384Z,17.07
2018-07-20T20:49:53.691Z,18.33
2018-07-20T20:52:23.917Z,17.47
2018-07-20T20:54:54.129Z,15.90
2018-07-20T20:57:24.331Z,16.10
2018-07-20T20:59:54.512Z,16.03
2018-07-20T21:02:24.923Z,17.63
2018-07-20T21:04:55.026Z,16.87
2018-07-20T21:07:25.105Z,17.20
2018-07-20T21:09:55.203Z,16.87
2018-07-20T21:12:25.645Z,16.10
2018-07-20T21:14:56.011Z,16.97
2018-07-20T21:17:26.005Z,19.53
2018-07-20T21:19:56.008Z,18.90
2018-07-20T21:22:26.220Z,18.20
2018-07-20T21:24:56.336Z,18.67
2018-07-20T21:27:26.276Z,19.00
2018-07-20T21:29:56.451Z,18.60
2018-07-20T21:32:27.600Z,16.83
2018-07-20T21:34:57.592Z,19.80
2018-07-20T21:37:27.553Z,20.53
2018-07-20T21:39:57.707Z,19.93
2018-07-20T21:42:27.913Z,22.53
2018-07-20T21:44:58.055Z,20.23
2018-07-20T21:47:28.246Z,20.10
2018-07-20T21:49:58.416Z,22.90
2018-07-20T21:52:28.589Z,19.30
2018-07-20T21:54:58.830Z,20.33
2018-07-20T21:57:29.071Z,20.50
2018-07-20T21:59:59.023Z,18.10
2018-07-20T22:02:29.400Z,18.87
2018-07-20T22:04:59.608Z,18.63
2018-07-20T22:07:30.835Z,15.27
2018-07-20T22:10:01.106Z,16.70
2018-07-20T22:12:31.276Z,16.63
2018-07-20T22:15:01.657Z,16.53
2018-07-20T22:17:31.869Z,17.13
2018-07-20T22:20:02.056Z,17.83
2018-07-20T22:22:32.137Z,18.53
2018-07-20T22:25:03.492Z,16.07
2018-07-20T22:27:33.783Z,18.27
2018-07-20T22:30:04.070Z,17.10
2018-07-20T22:32:34.285Z,17.67
2018-07-20T22:35:04.503Z,18.57
2018-07-20T22:37:34.504Z,17.67
2018-07-20T22:40:04.735Z,21.53
2018-07-20T22:42:35.905Z,19.77
2018-07-20T22:45:06.190Z,20.03
2018-07-20T22:47:36.126Z,21.40
2018-07-20T22:50:07.248Z,20.15
2018-07-20T22:52:37.388Z,16.93
2018-07-20T22:55:07.492Z,18.03
2018-07-20T22:57:37.460Z,17.93
2018-07-20T23:00:07.366Z,19.47
2018-07-20T23:02:37.483Z,18.60
2018-07-20T23:05:07.515Z,19.47
2018-07-20T23:07:37.553Z,18.27
2018-07-20T23:10:07.447Z,19.10
2018-07-20T23:12:37.598Z,19.60
2018-07-20T23:15:07.986Z,22.13
2018-07-20T23:17:39.267Z,19.13
2018-07-20T23:20:09.264Z,22.30
2018-07-20T23:22:39.618Z,20.53
2018-07-20T23:25:09.774Z,18.00
2018-07-20T23:27:41.041Z,18.47
2018-07-20T23:30:11.013Z,16.40
2018-07-20T23:32:41.186Z,19.13
2018-07-20T23:35:11.368Z,19.30
2018-07-20T23:37:42.275Z,22.67
2018-07-20T23:40:12.287Z,24.97
2018-07-20T23:42:43.258Z,26.17
2018-07-20T23:45:13.357Z,26.53
2018-07-20T23:47:43.516Z,29.73
2018-07-20T23:50:13.649Z,28.90
2018-07-20T23:52:43.558Z,27.60
2018-07-20T23:55:13.909Z,25.70
2018-07-20T23:57:44.032Z,27.50
